Time,TemperatureF,DewpointF,PressureIn,WindDirection,WindDirectionDegrees,WindSpeedMPH,WindSpeedGustMPH,Humidity,HourlyPrecipIn,Conditions,Clouds,dailyrainin,SoftwareType,DateUTC
2013-05-03 00:03:00,61.0,14.5,29.32,East,97,0.0,3.1,16,0.00,,---,0.00,VWS V14.01,2013-05-03 07:03:00,
2013-05-03 00:08:00,61.9,15.2,29.32,East,97,0.0,0.0,16,0.00,,---,0.00,VWS V14.01,2013-05-03 07:08:00,
2013-05-03 00:13:00,61.9,15.2,29.32,ESE,114,3.6,4.0,16,0.00,,---,0.00,VWS V14.01,2013-05-03 07:13:00,
2013-05-03 00:18:00,61.9,15.2,29.32,ESE,114,3.6,4.0,16,0.00,,---,0.00,VWS V14.01,2013-05-03 07:18:00,
2013-05-03 00:23:00,61.7,15.1,29.32,ESE,114,4.0,4.5,16,0.00,,---,0.00,VWS V14.01,2013-05-03 07:23:00,
2013-05-03 00:28:00,61.5,14.9,29.32,ESE,116,4.0,4.5,16,0.00,,---,0.00,VWS V14.01,2013-05-03 07:28:00,
2013-05-03 00:33:00,61.5,14.9,29.32,ESE,118,3.6,4.0,16,0.00,,---,0.00,VWS V14.01,2013-05-03 07:33:00,
2013-05-03 00:38:00,61.2,14.6,29.32,ESE,119,3.6,3.6,16,0.00,,---,0.00,VWS V14.01,2013-05-03 07:38:00,
2013-05-03 00:43:00,61.0,14.5,29.32,ESE,119,3.6,4.0,16,0.00,,---,0.00,VWS V14.01,2013-05-03 07:43:00,
2013-05-03 00:49:00,60.3,13.9,29.32,ESE,119,0.0,0.0,16,0.00,,---,0.00,VWS V14.01,2013-05-03 07:49:00,
2013-05-03 00:54:00,59.2,14.4,29.32,ESE,119,2.7,3.1,17,0.00,,---,0.00,VWS V14.01,2013-05-03 07:54:00,
2013-05-03 00:59:00,59.2,14.4,29.32,ESE,112,4.0,4.5,17,0.00,,---,0.00,VWS V14.01,2013-05-03 07:59:00,
2013-05-03 01:04:00,60.3,13.9,29.32,ESE,112,0.0,3.6,16,0.00,,---,0.00,VWS V14.01,2013-05-03 08:04:00,
2013-05-03 01:09:00,60.6,14.2,29.32,East,99,3.1,3.6,16,0.00,,---,0.00,VWS V14.01,2013-05-03 08:09:00,
2013-05-03 01:14:00,58.1,13.5,29.32,NNE,22,0.0,0.0,17,0.00,,---,0.00,VWS V14.01,2013-05-03 08:14:00,
2013-05-03 01:19:00,56.8,12.5,29.32,NNE,22,0.0,0.0,17,0.00,,---,0.00,VWS V14.01,2013-05-03 08:19:00,
2013-05-03 01:24:00,56.5,12.2,29.32,NNE,22,0.0,0.0,17,0.00,,---,0.00,VWS V14.01,2013-05-03 08:24:00,
2013-05-03 01:29:00,56.3,12.1,29.32,NNE,22,0.0,0.0,17,0.00,,---,0.00,VWS V14.01,2013-05-03 08:29:00,
2013-05-03 01:34:00,56.3,12.1,29.32,NNE,22,0.0,0.0,17,0.00,,---,0.00,VWS V14.01,2013-05-03 08:34:00,
2013-05-03 01:39:00,56.5,12.2,29.32,NNE,12,0.0,0.0,17,0.00,,---,0.00,VWS V14.01,2013-05-03 08:39:00,
2013-05-03 01:44:00,57.2,12.8,29.32,NNE,12,0.0,0.0,17,0.00,,---,0.00,VWS V14.01,2013-05-03 08:44:00,
2013-05-03 01:49:00,56.3,12.1,29.29,NNE,12,0.0,0.0,17,0.00,,---,0.00,VWS V14.01,2013-05-03 08:49:00,
2013-05-03 01:54:00,55.8,11.6,29.29,NNE,12,0.0,0.0,17,0.00,,---,0.00,VWS V14.01,2013-05-03 08:54:00,
2013-05-03 01:59:00,54.5,10.6,29.29,NNE,12,0.0,0.0,17,0.00,,---,0.00,VWS V14.01,2013-05-03 08:59:00,
2013-05-03 02:04:00,53.6,11.1,29.29,ENE,78,0.0,4.0,18,0.00,,---,0.00,VWS V14.01,2013-05-03 09:04:00,
2013-05-03 02:09:00,53.6,11.1,29.29,ENE,78,0.0,0.0,18,0.00,,---,0.00,VWS V14.01,2013-05-03 09:09:00,
2013-05-03 02:14:00,54.3,11.7,29.29,ENE,78,0.0,0.0,18,0.00,,---,0.00,VWS V14.01,2013-05-03 09:14:00,
2013-05-03 02:19:00,54.1,11.6,29.29,ENE,78,0.0,0.0,18,0.00,,---,0.00,VWS V14.01,2013-05-03 09:19:00,
2013-05-03 02:24:00,54.5,10.6,29.29,ENE,78,0.0,0.0,17,0.00,,---,0.00,VWS V14.01,2013-05-03 09:24:00,
2013-05-03 02:29:00,55.2,11.2,29.29,ENE,78,0.0,0.0,17,0.00,,---,0.00,VWS V14.01,2013-05-03 09:29:00,
2013-05-03 02:34:00,55.0,11.0,29.29,ENE,78,0.0,0.0,17,0.00,,---,0.00,VWS V14.01,2013-05-03 09:34:00,
2013-05-03 02:39:00,54.7,10.7,29.29,ENE,78,0.0,0.0,17,0.00,,---,0.00,VWS V14.01,2013-05-03 09:39:00,
2013-05-03 02:44:00,55.4,11.3,29.29,ENE,78,0.0,0.0,17,0.00,,---,0.00,VWS V14.01,2013-05-03 09:44:00,
2013-05-03 02:49:00,55.4,11.3,29.29,North,2,0.0,0.0,17,0.00,,---,0.00,VWS V14.01,2013-05-03 09:49:00,
2013-05-03 02:54:00,54.7,10.7,29.29,North,2,0.0,0.0,17,0.00,,---,0.00,VWS V14.01,2013-05-03 09:54:00,
2013-05-03 02:59:00,54.1,11.6,29.29,North,2,0.0,0.0,18,0.00,,---,0.00,VWS V14.01,2013-05-03 09:59:00,
2013-05-03 03:04:00,53.4,11.0,29.29,North,2,0.0,0.0,18,0.00,,---,0.00,VWS V14.01,2013-05-03 10:04:00,
2013-05-03 03:09:00,53.4,11.0,29.29,North,2,0.0,0.0,18,0.00,,---,0.00,VWS V14.01,2013-05-03 10:09:00,
2013-05-03 03:14:00,54.1,11.6,29.29,North,2,0.0,0.0,18,0.00,,---,0.00,VWS V14.01,2013-05-03 10:14:00,
2013-05-03 03:19:00,55.0,11.0,29.29,North,2,0.0,0.0,17,0.00,,---,0.00,VWS V14.01,2013-05-03 10:19:00,
2013-05-03 03:26:00,54.3,11.7,29.29,North,2,0.0,0.0,18,0.00,,---,0.00,VWS V14.01,2013-05-03 10:26:00,
2013-05-03 03:31:00,55.0,11.0,29.29,North,2,0.0,0.0,17,0.00,,---,0.00,VWS V14.01,2013-05-03 10:31:00,
2013-05-03 03:36:00,54.5,10.6,29.29,North,2,0.0,0.0,17,0.00,,---,0.00,VWS V14.01,2013-05-03 10:36:00,
2013-05-03 03:41:00,53.2,10.9,29.29,North,2,0.0,0.0,18,0.00,,---,0.00,VWS V14.01,2013-05-03 10:41:00,
2013-05-03 03:46:00,52.3,10.1,29.29,North,2,0.0,0.0,18,0.00,,---,0.00,VWS V14.01,2013-05-03 10:46:00,
2013-05-03 03:51:00,51.6,9.5,29.29,North,2,0.0,0.0,18,0.00,,---,0.00,VWS V14.01,2013-05-03 10:51:00,
2013-05-03 03:56:00,52.2,10.0,29.29,North,2,0.0,0.0,18,0.00,,---,0.00,VWS V14.01,2013-05-03 10:56:00,
2013-05-03 04:01:00,53.4,11.0,29.29,North,2,0.0,0.0,18,0.00,,---,0.00,VWS V14.01,2013-05-03 11:01:00,
2013-05-03 04:06:00,54.7,10.7,29.29,East,100,0.0,4.0,17,0.00,,---,0.00,VWS V14.01,2013-05-03 11:06:00,
2013-05-03 04:11:00,55.2,11.2,29.29,ESE,102,3.6,4.5,17,0.00,,---,0.00,VWS V14.01,2013-05-03 11:11:00,
2013-05-03 04:16:00,55.9,11.8,29.29,ESE,112,0.0,3.1,17,0.00,,---,0.00,VWS V14.01,2013-05-03 11:16:00,
2013-05-03 04:21:00,55.0,11.0,29.29,ESE,112,0.0,0.0,17,0.00,,---,0.00,VWS V14.01,2013-05-03 11:21:00,
2013-05-03 04:26:00,55.2,11.2,29.29,ESE,109,0.0,0.0,17,0.00,,---,0.00,VWS V14.01,2013-05-03 11:26:00,
2013-05-03 04:31:00,54.0,11.4,29.29,ESE,109,0.0,0.0,18,0.00,,---,0.00,VWS V14.01,2013-05-03 11:31:00,
2013-05-03 04:36:00,53.6,11.1,29.26,ESE,107,0.0,0.0,18,0.00,,---,0.00,VWS V14.01,2013-05-03 11:36:00,
2013-05-03 04:41:00,52.5,10.2,29.26,ESE,107,0.0,0.0,18,0.00,,---,0.00,VWS V14.01,2013-05-03 11:41:00,
2013-05-03 04:46:00,51.4,9.4,29.26,ESE,107,0.0,0.0,18,0.00,,---,0.00,VWS V14.01,2013-05-03 11:46:00,
2013-05-03 04:51:00,50.7,10.0,29.26,ESE,107,0.0,0.0,19,0.00,,---,0.00,VWS V14.01,2013-05-03 11:51:00,
2013-05-03 04:56:00,50.0,5.6,29.26,ESE,107,0.0,0.0,16,0.00,,---,0.00,VWS V14.01,2013-05-03 11:56:00,
2013-05-03 05:01:00,49.8,5.4,29.26,ESE,107,0.0,0.0,16,0.00,,---,0.00,VWS V14.01,2013-05-03 12:01:00,
2013-05-03 05:06:00,49.6,5.3,29.26,ESE,107,0.0,0.0,16,0.00,,---,0.00,VWS V14.01,2013-05-03 12:06:00,
2013-05-03 05:11:00,49.6,5.3,29.26,ESE,107,0.0,0.0,16,0.00,,---,0.00,VWS V14.01,2013-05-03 12:11:00,
2013-05-03 05:16:00,49.8,5.4,29.26,ESE,107,0.0,0.0,16,0.00,,---,0.00,VWS V14.01,2013-05-03 12:16:00,
2013-05-03 05:21:00,50.2,9.5,29.26,ESE,107,0.0,0.0,19,0.00,,---,0.00,VWS V14.01,2013-05-03 12:21:00,
2013-05-03 05:26:00,52.0,9.8,29.26,ESE,107,0.0,0.0,18,0.00,,---,0.00,VWS V14.01,2013-05-03 12:26:00,
2013-05-03 05:31:00,52.2,10.0,29.26,ESE,107,0.0,0.0,18,0.00,,---,0.00,VWS V14.01,2013-05-03 12:31:00,
2013-05-03 05:36:00,51.8,9.7,29.26,ESE,107,0.0,0.0,18,0.00,,---,0.00,VWS V14.01,2013-05-03 12:36:00,
2013-05-03 05:41:00,51.6,9.5,29.26,ESE,107,0.0,0.0,18,0.00,,---,0.00,VWS V14.01,2013-05-03 12:41:00,
2013-05-03 05:46:00,51.4,9.4,29.26,ESE,107,0.0,0.0,18,0.00,,---,0.00,VWS V14.01,2013-05-03 12:46:00,
2013-05-03 05:51:00,51.4,9.4,29.26,ESE,107,0.0,0.0,18,0.00,,---,0.00,VWS V14.01,2013-05-03 12:51:00,
2013-05-03 05:56:00,51.4,9.4,29.26,ESE,107,0.0,0.0,18,0.00,,---,0.00,VWS V14.01,2013-05-03 12:56:00,
2013-05-03 06:01:00,51.4,9.4,29.26,ESE,107,0.0,0.0,18,0.00,,---,0.00,VWS V14.01,2013-05-03 13:01:00,
2013-05-03 06:06:00,51.6,9.5,29.26,ESE,107,0.0,0.0,18,0.00,,---,0.00,VWS V14.01,2013-05-03 13:06:00,
2013-05-03 06:11:00,51.4,9.4,29.26,NNW,347,4.5,4.5,18,0.00,,---,0.00,VWS V14.01,2013-05-03 13:11:00,
2013-05-03 06:16:00,50.0,5.6,29.26,NNW,340,4.0,4.9,16,0.00,,---,0.00,VWS V14.01,2013-05-03 13:16:00,
2013-05-03 06:21:00,49.6,5.3,29.26,NNW,340,0.0,0.0,16,0.00,,---,0.00,VWS V14.01,2013-05-03 13:21:00,
2013-05-03 06:26:00,49.6,5.3,29.26,NNW,340,0.0,0.0,16,0.00,,---,0.00,VWS V14.01,2013-05-03 13:26:00,
2013-05-03 06:31:00,50.9,10.1,29.26,NNW,340,0.0,0.0,19,0.00,,---,0.00,VWS V14.01,2013-05-03 13:31:00,
2013-05-03 06:36:00,51.6,9.5,29.26,NW,321,2.7,4.0,18,0.00,,---,0.00,VWS V14.01,2013-05-03 13:36:00,
2013-05-03 06:42:00,52.9,10.6,29.26,NW,320,0.0,0.0,18,0.00,,---,0.00,VWS V14.01,2013-05-03 13:42:00,
2013-05-03 06:47:00,55.0,11.0,29.26,NW,320,0.0,0.0,17,0.00,,---,0.00,VWS V14.01,2013-05-03 13:47:00,
2013-05-03 06:52:00,56.1,11.9,29.26,NW,326,3.1,3.6,17,0.00,,---,0.00,VWS V14.01,2013-05-03 13:52:00,
2013-05-03 06:57:00,55.8,11.6,29.26,East,99,0.0,0.0,17,0.00,,---,0.00,VWS V14.01,2013-05-03 13:57:00,
2013-05-03 07:02:00,55.2,11.2,29.26,East,99,0.0,0.0,17,0.00,,---,0.00,VWS V14.01,2013-05-03 14:02:00,
2013-05-03 07:07:00,55.8,11.6,29.26,East,99,0.0,0.0,17,0.00,,---,0.00,VWS V14.01,2013-05-03 14:07:00,
2013-05-03 07:12:00,56.7,12.4,29.26,East,99,0.0,0.0,17,0.00,,---,0.00,VWS V14.01,2013-05-03 14:12:00,
2013-05-03 07:17:00,57.6,13.1,29.26,East,99,0.0,0.0,17,0.00,,---,0.00,VWS V14.01,2013-05-03 14:17:00,
2013-05-03 07:22:00,58.1,13.5,29.26,East,99,0.0,0.0,17,0.00,,---,0.00,VWS V14.01,2013-05-03 14:22:00,
2013-05-03 07:27:00,59.0,14.3,29.26,East,97,0.0,0.0,17,0.00,,---,0.00,VWS V14.01,2013-05-03 14:27:00,
2013-05-03 07:32:00,60.4,14.1,29.26,East,97,0.0,0.0,16,0.00,,---,0.00,VWS V14.01,2013-05-03 14:32:00,
2013-05-03 07:37:00,61.9,15.2,29.26,East,97,0.0,0.0,16,0.00,,---,0.00,VWS V14.01,2013-05-03 14:37:00,
2013-05-03 07:42:00,63.3,16.4,29.26,SSE,162,4.0,4.9,16,0.00,,---,0.00,VWS V14.01,2013-05-03 14:42:00,
2013-05-03 07:47:00,64.2,15.6,29.26,SSW,200,0.0,0.0,15,0.00,,---,0.00,VWS V14.01,2013-05-03 14:47:00,
2013-05-03 07:52:00,65.1,16.4,29.23,South,182,0.0,0.0,15,0.00,,---,0.00,VWS V14.01,2013-05-03 14:52:00,
2013-05-03 07:57:00,66.0,17.1,29.23,South,181,0.0,3.6,15,0.00,,---,0.00,VWS V14.01,2013-05-03 14:57:00,
2013-05-03 08:02:00,67.1,17.9,29.23,SSW,193,0.0,0.0,15,0.00,,---,0.00,VWS V14.01,2013-05-03 15:02:00,
2013-05-03 08:07:00,67.8,18.5,29.23,SSW,211,0.0,0.0,15,0.00,,---,0.00,VWS V14.01,2013-05-03 15:07:00,
2013-05-03 08:12:00,68.5,19.1,29.23,SSW,212,0.0,0.0,15,0.00,,---,0.00,VWS V14.01,2013-05-03 15:12:00,
2013-05-03 08:17:00,69.3,18.1,29.23,SSW,203,0.0,4.0,14,0.00,,---,0.00,VWS V14.01,2013-05-03 15:17:00,
2013-05-03 08:22:00,70.3,18.9,29.23,SSW,205,0.0,3.6,14,0.00,,---,0.00,VWS V14.01,2013-05-03 15:22:00,
2013-05-03 08:27:00,72.1,20.4,29.23,SSW,212,0.0,2.7,14,0.00,,---,0.00,VWS V14.01,2013-05-03 15:27:00,
2013-05-03 08:32:00,73.2,19.5,29.23,NW,314,4.5,4.5,13,0.00,,---,0.00,VWS V14.01,2013-05-03 15:32:00,
2013-05-03 08:37:00,71.6,19.9,29.23,NW,319,5.4,6.7,14,0.00,,---,0.00,VWS V14.01,2013-05-03 15:37:00,
2013-05-03 08:42:00,72.0,20.2,29.23,NNW,340,2.7,4.0,14,0.00,,---,0.00,VWS V14.01,2013-05-03 15:42:00,
2013-05-03 08:47:00,72.3,20.5,29.23,North,351,0.0,3.1,14,0.00,,---,0.00,VWS V14.01,2013-05-03 15:47:00,
2013-05-03 08:52:00,72.0,20.2,29.23,North,351,4.0,4.9,14,0.00,,---,0.00,VWS V14.01,2013-05-03 15:52:00,
2013-05-03 08:57:00,72.7,19.0,29.23,NW,318,4.9,4.9,13,0.00,,---,0.00,VWS V14.01,2013-05-03 15:57:00,
2013-05-03 09:02:00,74.7,20.6,29.23,NW,322,0.0,0.0,13,0.00,,---,0.00,VWS V14.01,2013-05-03 16:02:00,
2013-05-03 09:07:00,77.0,22.4,29.23,West,280,0.0,0.0,13,0.00,,---,0.00,VWS V14.01,2013-05-03 16:07:00,
2013-05-03 09:12:00,79.2,22.2,29.23,West,280,0.0,0.0,12,0.00,,---,0.00,VWS V14.01,2013-05-03 16:12:00,
2013-05-03 09:17:00,80.4,23.2,29.23,WNW,284,3.1,3.6,12,0.00,,---,0.00,VWS V14.01,2013-05-03 16:17:00,
2013-05-03 09:22:00,81.7,22.1,29.21,WNW,293,0.0,3.6,11,0.00,,---,0.00,VWS V14.01,2013-05-03 16:22:00,
2013-05-03 09:27:00,81.3,23.9,29.21,NNW,338,0.0,2.7,12,0.00,,---,0.00,VWS V14.01,2013-05-03 16:27:00,
2013-05-03 09:32:00,81.3,23.9,29.21,SW,233,0.0,0.0,12,0.00,,---,0.00,VWS V14.01,2013-05-03 16:32:00,
2013-05-03 09:37:00,80.8,23.5,29.21,North,2,0.0,0.0,12,0.00,,---,0.00,VWS V14.01,2013-05-03 16:37:00,
2013-05-03 09:42:00,80.2,23.1,29.21,SSW,205,4.0,4.5,12,0.00,,---,0.00,VWS V14.01,2013-05-03 16:42:00,
2013-05-03 09:47:00,81.9,22.2,29.21,SW,226,0.0,2.7,11,0.00,,---,0.00,VWS V14.01,2013-05-03 16:47:00,
2013-05-03 09:52:00,84.0,23.9,29.21,West,274,4.5,4.5,11,0.00,,---,0.00,VWS V14.01,2013-05-03 16:52:00,
2013-05-03 09:57:00,84.6,24.3,29.21,West,281,0.0,3.1,11,0.00,,---,0.00,VWS V14.01,2013-05-03 16:57:00,
2013-05-03 10:02:00,85.3,24.9,29.21,SW,227,3.6,4.0,11,0.00,,---,0.00,VWS V14.01,2013-05-03 17:02:00,
2013-05-03 10:07:00,85.6,25.2,29.21,WNW,303,0.0,0.0,11,0.00,,---,0.00,VWS V14.01,2013-05-03 17:07:00,
2013-05-03 10:12:00,86.2,25.6,29.21,West,272,0.0,3.1,11,0.00,,---,0.00,VWS V14.01,2013-05-03 17:12:00,
2013-05-03 10:17:00,85.5,25.0,29.21,WSW,247,0.0,5.8,11,0.00,,---,0.00,VWS V14.01,2013-05-03 17:17:00,
2013-05-03 10:22:00,87.6,24.4,29.21,WSW,254,0.0,4.0,10,0.00,,---,0.00,VWS V14.01,2013-05-03 17:22:00,
2013-05-03 10:27:00,87.6,24.4,29.21,SW,227,4.5,5.8,10,0.00,,---,0.00,VWS V14.01,2013-05-03 17:27:00,
2013-05-03 10:32:00,86.9,23.8,29.21,WSW,244,4.9,6.9,10,0.00,,---,0.00,VWS V14.01,2013-05-03 17:32:00,
2013-05-03 10:37:00,86.2,25.6,29.18,SW,224,4.9,6.9,11,0.00,,---,0.00,VWS V14.01,2013-05-03 17:37:00,
2013-05-03 10:42:00,86.0,25.4,29.18,SSW,202,5.4,5.8,11,0.00,,---,0.00,VWS V14.01,2013-05-03 17:42:00,
2013-05-03 10:47:00,86.7,26.0,29.18,SSE,159,3.1,4.0,11,0.00,,---,0.00,VWS V14.01,2013-05-03 17:47:00,
2013-05-03 10:52:00,86.4,25.7,29.18,SSW,209,3.6,4.9,11,0.00,,---,0.00,VWS V14.01,2013-05-03 17:52:00,
2013-05-03 10:57:00,87.8,24.5,29.18,SSW,199,6.3,6.3,10,0.00,,---,0.00,VWS V14.01,2013-05-03 17:57:00,
2013-05-03 11:02:00,88.2,24.8,29.18,WSW,245,4.5,6.3,10,0.00,,---,0.00,VWS V14.01,2013-05-03 18:02:00,
2013-05-03 11:07:00,90.7,31.2,29.18,West,265,4.5,6.3,12,0.00,,---,0.00,VWS V14.01,2013-05-03 18:07:00,
2013-05-03 11:12:00,92.3,30.3,29.18,West,264,0.0,3.6,11,0.00,,---,0.00,VWS V14.01,2013-05-03 18:12:00,
2013-05-03 11:17:00,92.7,30.5,29.18,WSW,237,3.6,4.9,11,0.00,,---,0.00,VWS V14.01,2013-05-03 18:17:00,
2013-05-03 11:22:00,91.6,31.9,29.18,WNW,291,0.0,5.8,12,0.00,,---,0.00,VWS V14.01,2013-05-03 18:22:00,
2013-05-03 11:27:00,90.5,31.0,29.18,WSW,245,5.4,7.8,12,0.00,,---,0.00,VWS V14.01,2013-05-03 18:27:00,
2013-05-03 11:32:00,90.9,31.3,29.18,East,88,3.1,3.6,12,0.00,,---,0.00,VWS V14.01,2013-05-03 18:32:00,
2013-05-03 11:37:00,92.3,30.3,29.18,WNW,289,4.0,7.4,11,0.00,,---,0.00,VWS V14.01,2013-05-03 18:37:00,
2013-05-03 11:42:00,92.8,30.7,29.18,West,269,7.8,8.3,11,0.00,,---,0.00,VWS V14.01,2013-05-03 18:42:00,
2013-05-03 11:47:00,93.6,31.2,29.18,WNW,285,6.9,7.4,11,0.00,,---,0.00,VWS V14.01,2013-05-03 18:47:00,
2013-05-03 11:52:00,93.6,31.2,29.18,West,266,2.7,5.8,11,0.00,,---,0.00,VWS V14.01,2013-05-03 18:52:00,
2013-05-03 11:57:00,93.0,30.8,29.18,NW,311,4.0,7.8,11,0.00,,---,0.00,VWS V14.01,2013-05-03 18:57:00,
2013-05-03 12:02:00,91.2,31.6,29.18,NNE,26,5.4,7.8,12,0.00,,---,0.00,VWS V14.01,2013-05-03 19:02:00,
2013-05-03 12:07:00,89.8,30.5,29.18,West,259,6.3,7.8,12,0.00,,---,0.00,VWS V14.01,2013-05-03 19:07:00,
2013-05-03 12:12:00,91.0,31.4,29.18,NW,317,3.1,5.8,12,0.00,,---,0.00,VWS V14.01,2013-05-03 19:12:00,
2013-05-03 12:17:00,92.3,30.3,29.18,NW,318,3.1,6.7,11,0.00,,---,0.00,VWS V14.01,2013-05-03 19:17:00,
2013-05-03 12:22:00,93.0,30.8,29.15,WSW,249,7.8,9.2,11,0.00,,---,0.00,VWS V14.01,2013-05-03 19:22:00,
2013-05-03 12:27:00,93.9,31.5,29.15,WNW,290,6.7,7.8,11,0.00,,---,0.00,VWS V14.01,2013-05-03 19:27:00,
2013-05-03 12:32:00,94.8,32.2,29.15,WNW,300,3.6,6.3,11,0.00,,---,0.00,VWS V14.01,2013-05-03 19:32:00,
2013-05-03 12:37:00,93.7,31.4,29.15,West,264,3.6,6.7,11,0.00,,---,0.00,VWS V14.01,2013-05-03 19:37:00,
2013-05-03 12:42:00,94.8,32.2,29.15,West,259,8.3,9.6,11,0.00,,---,0.00,VWS V14.01,2013-05-03 19:42:00,
2013-05-03 12:47:00,94.6,32.0,29.15,West,261,8.7,8.7,11,0.00,,---,0.00,VWS V14.01,2013-05-03 19:47:00,
2013-05-03 12:52:00,95.0,32.3,29.15,WNW,300,7.4,10.1,11,0.00,,---,0.00,VWS V14.01,2013-05-03 19:52:00,
2013-05-03 12:57:00,94.6,32.0,29.15,West,279,6.9,8.3,11,0.00,,---,0.00,VWS V14.01,2013-05-03 19:57:00,
2013-05-03 13:02:00,95.4,32.6,29.15,WSW,258,6.9,7.4,11,0.00,,---,0.00,VWS V14.01,2013-05-03 20:02:00,
2013-05-03 13:08:00,95.5,32.7,29.15,WSW,258,0.0,3.1,11,0.00,,---,0.00,VWS V14.01,2013-05-03 20:08:00,
2013-05-03 13:13:00,94.3,31.8,29.15,North,356,4.5,5.8,11,0.00,,---,0.00,VWS V14.01,2013-05-03 20:13:00,
2013-05-03 13:18:00,93.4,31.1,29.12,WSW,258,8.3,9.2,11,0.00,,---,0.00,VWS V14.01,2013-05-03 20:18:00,
2013-05-03 13:23:00,94.3,31.8,29.12,NW,323,3.1,5.8,11,0.00,,---,0.00,VWS V14.01,2013-05-03 20:23:00,
2013-05-03 13:28:00,91.8,32.0,29.12,SSW,197,6.7,7.4,12,0.00,,---,0.00,VWS V14.01,2013-05-03 20:28:00,
2013-05-03 13:33:00,93.7,31.4,29.12,WSW,250,0.0,4.9,11,0.00,,---,0.00,VWS V14.01,2013-05-03 20:33:00,
2013-05-03 13:38:00,92.1,32.3,29.12,NNW,331,6.7,7.4,12,0.00,,---,0.00,VWS V14.01,2013-05-03 20:38:00,
2013-05-03 13:43:00,92.7,30.5,29.12,West,273,5.4,5.4,11,0.00,,---,0.00,VWS V14.01,2013-05-03 20:43:00,
2013-05-03 13:48:00,94.3,31.8,29.12,West,274,0.0,3.6,11,0.00,,---,0.00,VWS V14.01,2013-05-03 20:48:00,
2013-05-03 13:53:00,95.5,32.7,29.12,WSW,245,7.8,7.8,11,0.00,,---,0.00,VWS V14.01,2013-05-03 20:53:00,
2013-05-03 13:58:00,94.6,32.0,29.12,SSW,203,6.3,6.3,11,0.00,,---,0.00,VWS V14.01,2013-05-03 20:58:00,
2013-05-03 14:03:00,91.6,31.9,29.12,SSW,199,11.0,11.0,12,0.00,,---,0.00,VWS V14.01,2013-05-03 21:03:00,
2013-05-03 14:08:00,93.2,31.0,29.12,South,190,4.0,5.8,11,0.00,,---,0.00,VWS V14.01,2013-05-03 21:08:00,
2013-05-03 14:13:00,91.8,32.0,29.12,West,264,4.5,4.5,12,0.00,,---,0.00,VWS V14.01,2013-05-03 21:13:00,
2013-05-03 14:18:00,92.7,30.5,29.12,SSW,192,5.8,9.2,11,0.00,,---,0.00,VWS V14.01,2013-05-03 21:18:00,
2013-05-03 14:23:00,93.6,31.2,29.12,ESE,120,3.6,6.3,11,0.00,,---,0.00,VWS V14.01,2013-05-03 21:23:00,
2013-05-03 14:28:00,93.0,30.8,29.12,North,351,7.4,13.0,11,0.00,,---,0.00,VWS V14.01,2013-05-03 21:28:00,
2013-05-03 14:33:00,91.0,31.4,29.09,NNW,334,13.4,14.3,12,0.00,,---,0.00,VWS V14.01,2013-05-03 21:33:00,
2013-05-03 14:38:00,90.3,30.9,29.09,North,9,7.4,10.1,12,0.00,,---,0.00,VWS V14.01,2013-05-03 21:38:00,
2013-05-03 14:44:00,91.4,31.7,29.09,NW,311,6.9,9.2,12,0.00,,---,0.00,VWS V14.01,2013-05-03 21:44:00,
2013-05-03 14:49:00,91.4,31.7,29.09,NE,43,3.6,6.9,12,0.00,,---,0.00,VWS V14.01,2013-05-03 21:49:00,
2013-05-03 14:54:00,91.4,31.7,29.09,NNW,339,10.1,11.6,12,0.00,,---,0.00,VWS V14.01,2013-05-03 21:54:00,
2013-05-03 14:59:00,91.8,32.0,29.09,NNE,19,6.7,9.6,12,0.00,,---,0.00,VWS V14.01,2013-05-03 21:59:00,
2013-05-03 15:04:00,91.6,31.9,29.09,NNW,341,0.0,7.8,12,0.00,,---,0.00,VWS V14.01,2013-05-03 22:04:00,
2013-05-03 15:09:00,93.0,30.8,29.09,SW,231,3.1,9.2,11,0.00,,---,0.00,VWS V14.01,2013-05-03 22:09:00,
2013-05-03 15:14:00,92.7,30.5,29.09,NW,326,7.8,8.3,11,0.00,,---,0.00,VWS V14.01,2013-05-03 22:14:00,
2013-05-03 15:19:00,90.9,31.3,29.09,NNW,332,6.3,7.4,12,0.00,,---,0.00,VWS V14.01,2013-05-03 22:19:00,
2013-05-03 15:25:00,90.9,31.3,29.09,North,351,4.9,6.9,12,0.00,,---,0.00,VWS V14.01,2013-05-03 22:25:00,
2013-05-03 15:30:00,90.3,30.9,29.09,North,356,5.4,10.5,12,0.00,,---,0.00,VWS V14.01,2013-05-03 22:30:00,
2013-05-03 15:35:00,91.8,32.0,29.06,NNW,329,6.7,9.2,12,0.00,,---,0.00,VWS V14.01,2013-05-03 22:35:00,
2013-05-03 15:40:00,93.0,30.8,29.06,WNW,299,9.6,9.6,11,0.00,,---,0.00,VWS V14.01,2013-05-03 22:40:00,
2013-05-03 15:45:00,93.4,31.1,29.06,SW,236,0.0,0.0,11,0.00,,---,0.00,VWS V14.01,2013-05-03 22:45:00,
2013-05-03 15:50:00,93.7,31.4,29.06,ENE,57,0.0,4.5,11,0.00,,---,0.00,VWS V14.01,2013-05-03 22:50:00,
2013-05-03 15:55:00,92.1,32.3,29.06,NNW,346,10.5,12.5,12,0.00,,---,0.00,VWS V14.01,2013-05-03 22:55:00,
2013-05-03 16:00:00,90.9,31.3,29.06,NW,323,9.6,13.0,12,0.00,,---,0.00,VWS V14.01,2013-05-03 23:00:00,
2013-05-03 16:05:00,91.9,32.1,29.06,NW,310,6.3,13.4,12,0.00,,---,0.00,VWS V14.01,2013-05-03 23:05:00,
2013-05-03 16:10:00,91.8,32.0,29.06,NNW,337,9.2,13.0,12,0.00,,---,0.00,VWS V14.01,2013-05-03 23:10:00,
2013-05-03 16:15:00,91.9,32.1,29.06,WNW,290,0.0,5.4,12,0.00,,---,0.00,VWS V14.01,2013-05-03 23:15:00,
2013-05-03 16:21:00,90.9,31.3,29.06,NNW,337,9.2,10.1,12,0.00,,---,0.00,VWS V14.01,2013-05-03 23:21:00,
2013-05-03 16:26:00,90.5,31.0,29.06,NNW,337,5.4,9.2,12,0.00,,---,0.00,VWS V14.01,2013-05-03 23:26:00,
2013-05-03 16:31:00,91.6,31.9,29.06,NW,320,9.6,9.6,12,0.00,,---,0.00,VWS V14.01,2013-05-03 23:31:00,
2013-05-03 16:36:00,92.1,32.3,29.06,NW,322,5.8,7.4,12,0.00,,---,0.00,VWS V14.01,2013-05-03 23:36:00,
2013-05-03 16:41:00,92.5,30.4,29.06,NW,305,3.6,7.4,11,0.00,,---,0.00,VWS V14.01,2013-05-03 23:41:00,
2013-05-03 16:46:00,90.9,31.3,29.06,North,1,8.3,13.4,12,0.00,,---,0.00,VWS V14.01,2013-05-03 23:46:00,
2013-05-03 16:51:00,90.7,31.2,29.06,NE,52,4.5,7.4,12,0.00,,---,0.00,VWS V14.01,2013-05-03 23:51:00,
2013-05-03 16:56:00,90.9,31.3,29.06,North,351,6.7,7.8,12,0.00,,---,0.00,VWS V14.01,2013-05-03 23:56:00,
2013-05-03 17:01:00,91.0,31.4,29.06,NNW,341,6.9,11.0,12,0.00,,---,0.00,VWS V14.01,2013-05-04 00:01:00,
2013-05-03 17:06:00,90.9,31.3,29.06,NNE,15,10.1,11.0,12,0.00,,---,0.00,VWS V14.01,2013-05-04 00:06:00,
2013-05-03 17:11:00,90.7,31.2,29.06,North,351,10.1,10.1,12,0.00,,---,0.00,VWS V14.01,2013-05-04 00:11:00,
2013-05-03 17:16:00,90.5,31.0,29.06,WNW,301,6.3,7.4,12,0.00,,---,0.00,VWS V14.01,2013-05-04 00:16:00,
2013-05-03 17:21:00,90.9,31.3,29.03,North,11,4.9,4.9,12,0.00,,---,0.00,VWS V14.01,2013-05-04 00:21:00,
2013-05-03 17:26:00,90.7,31.2,29.03,NNW,330,5.8,6.7,12,0.00,,---,0.00,VWS V14.01,2013-05-04 00:26:00,
2013-05-03 17:31:00,90.0,30.6,29.03,North,2,4.9,9.6,12,0.00,,---,0.00,VWS V14.01,2013-05-04 00:31:00,
2013-05-03 17:36:00,90.3,30.9,29.03,North,351,7.8,7.8,12,0.00,,---,0.00,VWS V14.01,2013-05-04 00:36:00,
2013-05-03 17:41:00,90.7,31.2,29.03,WNW,290,0.0,3.1,12,0.00,,---,0.00,VWS V14.01,2013-05-04 00:41:00,
2013-05-03 17:46:00,91.6,31.9,29.03,North,2,4.9,4.9,12,0.00,,---,0.00,VWS V14.01,2013-05-04 00:46:00,
2013-05-03 17:51:00,90.5,31.0,29.03,WNW,288,7.8,10.5,12,0.00,,---,0.00,VWS V14.01,2013-05-04 00:51:00,
2013-05-03 17:56:00,90.1,30.7,29.03,WSW,247,7.4,12.1,12,0.00,,---,0.00,VWS V14.01,2013-05-04 00:56:00,
2013-05-03 18:01:00,89.8,30.5,29.03,WSW,248,10.5,10.5,12,0.00,,---,0.00,VWS V14.01,2013-05-04 01:01:00,
2013-05-03 18:06:00,89.4,30.2,29.03,WSW,252,6.9,9.6,12,0.00,,---,0.00,VWS V14.01,2013-05-04 01:06:00,
2013-05-03 18:11:00,89.2,30.0,29.03,West,274,8.7,8.7,12,0.00,,---,0.00,VWS V14.01,2013-05-04 01:11:00,
2013-05-03 18:16:00,88.7,29.6,29.03,WSW,252,8.3,11.2,12,0.00,,---,0.00,VWS V14.01,2013-05-04 01:16:00,
2013-05-03 18:21:00,87.8,24.5,29.03,West,276,10.1,13.4,10,0.00,,---,0.00,VWS V14.01,2013-05-04 01:21:00,
2013-05-03 18:26:00,87.1,24.0,29.03,WSW,241,6.9,9.6,10,0.00,,---,0.00,VWS V14.01,2013-05-04 01:26:00,
2013-05-03 18:31:00,86.5,25.9,29.03,West,278,10.5,11.2,11,0.00,,---,0.00,VWS V14.01,2013-05-04 01:31:00,
2013-05-03 18:36:00,86.0,25.4,29.03,WSW,245,9.6,11.6,11,0.00,,---,0.00,VWS V14.01,2013-05-04 01:36:00,
2013-05-03 18:41:00,85.3,24.9,29.03,WSW,247,6.7,13.4,11,0.00,,---,0.00,VWS V14.01,2013-05-04 01:41:00,
2013-05-03 18:46:00,84.6,24.3,29.03,West,262,13.9,13.9,11,0.00,,---,0.00,VWS V14.01,2013-05-04 01:46:00,
2013-05-03 18:51:00,83.8,23.8,29.03,West,271,9.2,9.6,11,0.00,,---,0.00,VWS V14.01,2013-05-04 01:51:00,
2013-05-03 18:56:00,83.3,23.4,29.03,WSW,247,9.6,11.0,11,0.00,,---,0.00,VWS V14.01,2013-05-04 01:56:00,
2013-05-03 19:01:00,82.4,22.7,29.03,SW,233,7.8,8.3,11,0.00,,---,0.00,VWS V14.01,2013-05-04 02:01:00,
2013-05-03 19:06:00,81.9,22.2,29.03,SW,236,8.7,10.5,11,0.00,,---,0.00,VWS V14.01,2013-05-04 02:06:00,
2013-05-03 19:11:00,81.7,22.1,29.03,WSW,240,9.2,9.2,11,0.00,,---,0.00,VWS V14.01,2013-05-04 02:11:00,
2013-05-03 19:16:00,81.3,23.9,29.03,WSW,253,7.4,7.4,12,0.00,,---,0.00,VWS V14.01,2013-05-04 02:16:00,
2013-05-03 19:21:00,81.3,23.9,29.03,WSW,258,8.3,9.6,12,0.00,,---,0.00,VWS V14.01,2013-05-04 02:21:00,
2013-05-03 19:26:00,80.6,23.4,29.03,WSW,248,9.6,9.6,12,0.00,,---,0.00,VWS V14.01,2013-05-04 02:26:00,
2013-05-03 19:31:00,80.4,23.2,29.03,WSW,244,7.4,7.4,12,0.00,,---,0.00,VWS V14.01,2013-05-04 02:31:00,
2013-05-03 19:36:00,79.3,22.4,29.03,WSW,239,8.3,9.6,12,0.00,,---,0.00,VWS V14.01,2013-05-04 02:36:00,
2013-05-03 19:41:00,78.6,21.8,29.03,WSW,242,7.4,7.8,12,0.00,,---,0.00,VWS V14.01,2013-05-04 02:41:00,
2013-05-03 19:46:00,77.9,23.1,29.03,WSW,243,6.9,8.7,13,0.00,,---,0.00,VWS V14.01,2013-05-04 02:46:00,
2013-05-03 19:51:00,77.2,22.6,29.03,WSW,255,5.4,7.4,13,0.00,,---,0.00,VWS V14.01,2013-05-04 02:51:00,
2013-05-03 19:56:00,76.3,21.9,29.03,SW,229,8.7,9.6,13,0.00,,---,0.00,VWS V14.01,2013-05-04 02:56:00,
2013-05-03 20:01:00,76.3,21.9,29.03,WSW,252,6.3,6.3,13,0.00,,---,0.00,VWS V14.01,2013-05-04 03:01:00,
2013-05-03 20:06:00,75.6,21.3,29.03,West,259,8.3,8.3,13,0.00,,---,0.00,VWS V14.01,2013-05-04 03:06:00,
2013-05-03 20:11:00,75.2,21.0,29.03,WSW,245,6.3,6.3,13,0.00,,---,0.00,VWS V14.01,2013-05-04 03:11:00,
2013-05-03 20:16:00,75.0,20.9,29.03,WSW,245,8.3,9.2,13,0.00,,---,0.00,VWS V14.01,2013-05-04 03:16:00,
2013-05-03 20:21:00,74.5,20.5,29.06,WSW,245,5.8,5.8,13,0.00,,---,0.00,VWS V14.01,2013-05-04 03:21:00,
2013-05-03 20:26:00,73.8,19.9,29.06,WSW,251,6.9,6.9,13,0.00,,---,0.00,VWS V14.01,2013-05-04 03:26:00,
2013-05-03 20:31:00,73.8,19.9,29.06,SSW,212,3.6,7.4,13,0.00,,---,0.00,VWS V14.01,2013-05-04 03:31:00,
2013-05-03 20:36:00,74.3,20.3,29.06,SW,224,4.5,4.5,13,0.00,,---,0.00,VWS V14.01,2013-05-04 03:36:00,
2013-05-03 20:41:00,74.3,20.3,29.06,SSW,205,5.4,5.4,13,0.00,,---,0.00,VWS V14.01,2013-05-04 03:41:00,
2013-05-03 20:46:00,74.3,20.3,29.06,SSW,203,0.0,3.6,13,0.00,,---,0.00,VWS V14.01,2013-05-04 03:46:00,
2013-05-03 20:51:00,73.4,19.6,29.06,SSW,203,0.0,0.0,13,0.00,,---,0.00,VWS V14.01,2013-05-04 03:51:00,
2013-05-03 20:56:00,71.6,19.9,29.06,SSW,203,0.0,0.0,14,0.00,,---,0.00,VWS V14.01,2013-05-04 03:56:00,
2013-05-03 21:01:00,70.2,18.8,29.06,SSW,203,0.0,0.0,14,0.00,,---,0.00,VWS V14.01,2013-05-04 04:01:00,
2013-05-03 21:02:00,70.0,18.6,29.06,SSW,203,0.0,0.0,14,0.00,,---,0.00,VWS V14.01,2013-05-04 04:02:00,
2013-05-03 21:03:00,69.8,18.5,29.06,SSW,203,0.0,0.0,14,0.00,,---,0.00,VWS V14.01,2013-05-04 04:03:00,
2013-05-03 21:08:00,69.3,18.1,29.06,SSW,203,0.0,0.0,14,0.00,,---,0.00,VWS V14.01,2013-05-04 04:08:00,
2013-05-03 21:13:00,68.9,17.8,29.06,SE,132,3.1,3.6,14,0.00,,---,0.00,VWS V14.01,2013-05-04 04:13:00,
2013-05-03 21:14:00,69.3,18.1,29.06,SE,129,3.6,3.6,14,0.00,,---,0.00,VWS V14.01,2013-05-04 04:14:00,
2013-05-03 21:19:00,69.3,18.1,29.06,SE,132,4.5,5.4,14,0.00,,---,0.00,VWS V14.01,2013-05-04 04:19:00,
2013-05-03 21:24:00,69.4,18.2,29.06,SE,144,4.9,4.9,14,0.00,,---,0.00,VWS V14.01,2013-05-04 04:24:00,
2013-05-03 21:29:00,70.2,18.8,29.06,SE,144,0.0,2.7,14,0.00,,---,0.00,VWS V14.01,2013-05-04 04:29:00,
2013-05-03 21:34:00,68.4,19.0,29.06,SE,144,0.0,0.0,15,0.00,,---,0.00,VWS V14.01,2013-05-04 04:34:00,
2013-05-03 21:39:00,68.2,18.8,29.06,SE,130,0.0,3.1,15,0.00,,---,0.00,VWS V14.01,2013-05-04 04:39:00,
2013-05-03 21:44:00,67.5,18.2,29.06,SE,130,0.0,0.0,15,0.00,,---,0.00,VWS V14.01,2013-05-04 04:44:00,
2013-05-03 21:49:00,65.5,16.6,29.06,SE,130,0.0,0.0,15,0.00,,---,0.00,VWS V14.01,2013-05-04 04:49:00,
2013-05-03 21:54:00,65.5,16.6,29.06,East,97,3.6,4.0,15,0.00,,---,0.00,VWS V14.01,2013-05-04 04:54:00,
2013-05-03 21:59:00,66.4,17.4,29.06,ESE,115,4.0,4.5,15,0.00,,---,0.00,VWS V14.01,2013-05-04 04:59:00,
2013-05-03 22:04:00,66.7,17.6,29.06,ESE,115,0.0,0.0,15,0.00,,---,0.00,VWS V14.01,2013-05-04 05:04:00,
2013-05-03 22:09:00,66.7,17.6,29.06,ESE,111,0.0,0.0,15,0.00,,---,0.00,VWS V14.01,2013-05-04 05:09:00,
2013-05-03 22:14:00,65.8,16.9,29.06,ESE,111,0.0,0.0,15,0.00,,---,0.00,VWS V14.01,2013-05-04 05:14:00,
2013-05-03 22:19:00,63.5,16.5,29.06,North,3,2.7,5.4,16,0.00,,---,0.00,VWS V14.01,2013-05-04 05:19:00,
2013-05-03 22:24:00,63.0,16.1,29.06,NNE,19,0.0,0.0,16,0.00,,---,0.00,VWS V14.01,2013-05-04 05:24:00,
2013-05-03 22:29:00,62.8,15.9,29.06,WNW,296,0.0,0.0,16,0.00,,---,0.00,VWS V14.01,2013-05-04 05:29:00,
2013-05-03 22:34:00,62.4,15.7,29.06,WNW,296,0.0,0.0,16,0.00,,---,0.00,VWS V14.01,2013-05-04 05:34:00,
2013-05-03 22:39:00,61.9,15.2,29.06,WNW,297,0.0,0.0,16,0.00,,---,0.00,VWS V14.01,2013-05-04 05:39:00,
2013-05-03 22:44:00,62.1,15.4,29.06,WNW,296,0.0,0.0,16,0.00,,---,0.00,VWS V14.01,2013-05-04 05:44:00,
2013-05-03 22:49:00,62.1,15.4,29.06,WNW,297,0.0,0.0,16,0.00,,---,0.00,VWS V14.01,2013-05-04 05:49:00,
2013-05-03 22:54:00,62.4,15.7,29.06,WNW,296,0.0,0.0,16,0.00,,---,0.00,VWS V14.01,2013-05-04 05:54:00,
2013-05-03 22:59:00,63.5,16.5,29.06,WNW,297,0.0,0.0,16,0.00,,---,0.00,VWS V14.01,2013-05-04 05:59:00,
2013-05-03 23:04:00,63.7,15.2,29.06,WNW,297,0.0,0.0,15,0.00,,---,0.00,VWS V14.01,2013-05-04 06:04:00,
2013-05-03 23:09:00,64.2,15.6,29.06,WNW,296,2.7,3.1,15,0.00,,---,0.00,VWS V14.01,2013-05-04 06:09:00,
2013-05-03 23:14:00,65.5,16.6,29.06,WNW,296,3.6,3.6,15,0.00,,---,0.00,VWS V14.01,2013-05-04 06:14:00,
2013-05-03 23:19:00,64.9,16.2,29.06,SE,134,2.7,3.6,15,0.00,,---,0.00,VWS V14.01,2013-05-04 06:19:00,
2013-05-03 23:24:00,65.1,16.4,29.06,ESE,115,0.0,0.0,15,0.00,,---,0.00,VWS V14.01,2013-05-04 06:24:00,
2013-05-03 23:30:00,64.9,16.2,29.06,ESE,115,0.0,0.0,15,0.00,,---,0.00,VWS V14.01,2013-05-04 06:30:00,
2013-05-03 23:35:00,64.9,16.2,29.03,ESE,115,0.0,0.0,15,0.00,,---,0.00,VWS V14.01,2013-05-04 06:35:00,
2013-05-03 23:40:00,64.8,16.1,29.03,ESE,115,0.0,0.0,15,0.00,,---,0.00,VWS V14.01,2013-05-04 06:40:00,
2013-05-03 23:46:00,64.0,15.5,29.03,ESE,115,0.0,0.0,15,0.00,,---,0.00,VWS V14.01,2013-05-04 06:46:00,
2013-05-03 23:51:00,62.6,15.8,29.03,ESE,115,0.0,0.0,16,0.00,,---,0.00,VWS V14.01,2013-05-04 06:51:00,
2013-05-03 23:56:00,61.3,14.8,29.03,ESE,115,0.0,0.0,16,0.00,,---,0.00,VWS V14.01,2013-05-04 06:56:00,